createdAt,value
2023-03-26T00:01:46.626Z,6.90
2023-03-26T00:04:15.884Z,7.20
2023-03-26T00:06:42.613Z,7.80
2023-03-26T00:09:16.050Z,7.90
2023-03-26T00:11:46.847Z,6.30
2023-03-26T00:16:44.784Z,6.60
2023-03-26T00:19:14.156Z,7.80
2023-03-26T00:21:41.479Z,7.40
2023-03-26T00:24:20.667Z,8.90
2023-03-26T00:26:53.544Z,6.90
2023-03-26T00:29:20.679Z,8.20
2023-03-26T00:31:47.627Z,7.70
2023-03-26T00:34:17.995Z,8.30
2023-03-26T00:36:50.091Z,6.40
2023-03-26T00:39:44.472Z,6.80
2023-03-26T00:42:15.434Z,7.30
2023-03-26T00:44:49.001Z,7.00
2023-03-26T00:47:46.220Z,6.60
2023-03-26T00:50:18.822Z,6.80
2023-03-26T00:52:48.170Z,6.60
2023-03-26T00:55:16.491Z,6.70
2023-03-26T00:57:46.099Z,6.70
2023-03-26T01:00:26.421Z,7.00
2023-03-26T01:03:28.198Z,6.80
2023-03-26T01:08:31.272Z,6.30
2023-03-26T01:11:03.326Z,6.30
2023-03-26T01:13:40.094Z,6.20
2023-03-26T01:16:17.343Z,6.70
2023-03-26T01:18:52.625Z,6.40
2023-03-26T01:21:37.561Z,6.50
2023-03-26T01:24:08.125Z,6.50
2023-03-26T01:26:41.168Z,6.80
2023-03-26T01:29:39.655Z,6.50
2023-03-26T01:32:25.801Z,5.70
2023-03-26T01:34:59.173Z,6.50
2023-03-26T01:37:46.910Z,7.10
2023-03-26T01:40:49.621Z,6.40
2023-03-26T01:43:26.933Z,6.40
2023-03-26T01:45:57.898Z,6.40
2023-03-26T01:48:39.535Z,7.00
2023-03-26T01:51:06.438Z,6.40
2023-03-26T01:53:33.805Z,6.40
2023-03-26T01:56:35.747Z,6.70
2023-03-26T01:59:34.989Z,6.30
2023-03-26T02:02:29.111Z,6.20
2023-03-26T02:05:11.329Z,6.90
2023-03-26T02:08:19.178Z,6.20
2023-03-26T02:10:49.037Z,6.10
2023-03-26T02:13:23.521Z,7.40
2023-03-26T02:16:05.450Z,6.90
2023-03-26T02:18:39.254Z,6.20
2023-03-26T02:21:14.184Z,6.30
2023-03-26T02:24:10.696Z,6.20
2023-03-26T02:29:26.682Z,7.30
2023-03-26T02:31:53.547Z,6.20
2023-03-26T02:34:34.632Z,6.90
2023-03-26T02:40:58.728Z,6.00
2023-03-26T02:43:28.907Z,4.80
2023-03-26T02:49:29.035Z,5.60
2023-03-26T02:59:14.793Z,5.40
2023-03-26T03:01:46.542Z,5.80
2023-03-26T03:04:23.949Z,5.50
2023-03-26T03:06:59.601Z,6.10
2023-03-26T03:09:35.101Z,5.60
2023-03-26T03:12:16.168Z,5.70
2023-03-26T03:14:42.932Z,6.10
2023-03-26T03:17:15.435Z,5.00
2023-03-26T03:19:51.240Z,5.50
2023-03-26T03:22:38.574Z,5.50
2023-03-26T03:25:05.559Z,6.00
2023-03-26T03:27:42.308Z,5.50
2023-03-26T03:30:12.406Z,5.80
2023-03-26T03:32:42.112Z,5.40
2023-03-26T03:35:11.597Z,5.70
2023-03-26T03:37:38.380Z,5.10
2023-03-26T03:40:08.376Z,5.60
2023-03-26T03:42:37.904Z,5.20
2023-03-26T03:45:06.518Z,5.70
2023-03-26T03:47:33.343Z,5.10
2023-03-26T03:50:02.211Z,5.70
2023-03-26T03:52:29.140Z,4.90
2023-03-26T03:55:03.881Z,5.60
2023-03-26T03:57:37.728Z,5.50
2023-03-26T04:00:16.624Z,4.80
2023-03-26T04:02:49.316Z,4.80
2023-03-26T04:05:16.086Z,3.80
2023-03-26T04:07:50.216Z,4.80
2023-03-26T04:10:17.150Z,4.70
2023-03-26T04:12:46.425Z,4.10
2023-03-26T04:15:41.882Z,5.00
2023-03-26T04:18:17.540Z,4.70
2023-03-26T04:21:05.612Z,5.30
2023-03-26T04:23:42.465Z,4.80
2023-03-26T04:26:49.813Z,4.80
2023-03-26T04:29:18.488Z,4.90
2023-03-26T04:31:54.261Z,5.60
2023-03-26T04:41:20.342Z,5.00
2023-03-26T04:44:26.823Z,5.60
2023-03-26T04:53:44.294Z,5.10
2023-03-26T05:04:00.689Z,5.00
2023-03-26T05:09:24.479Z,5.10
2023-03-26T05:20:33.290Z,5.10
2023-03-26T05:26:09.102Z,4.90
2023-03-26T05:28:36.082Z,5.00
2023-03-26T05:31:02.800Z,5.00
2023-03-26T05:33:29.563Z,4.90
2023-03-26T05:36:01.377Z,5.00
2023-03-26T05:38:29.367Z,5.00
2023-03-26T05:41:00.125Z,5.00
2023-03-26T05:43:27.048Z,5.10
2023-03-26T05:45:53.769Z,5.10
2023-03-26T05:48:21.639Z,5.20
2023-03-26T05:50:49.084Z,5.20
2023-03-26T05:53:18.635Z,5.20
2023-03-26T05:55:45.888Z,5.20
2023-03-26T05:58:13.675Z,5.20
2023-03-26T06:00:40.367Z,5.30
2023-03-26T06:03:12.611Z,5.60
2023-03-26T06:05:39.961Z,5.70
2023-03-26T06:08:07.197Z,5.10
2023-03-26T06:10:33.847Z,5.50
2023-03-26T06:13:00.642Z,5.40
2023-03-26T06:15:27.306Z,5.20
2023-03-26T06:17:53.979Z,5.70
2023-03-26T06:20:20.820Z,5.70
2023-03-26T06:22:47.486Z,5.60
2023-03-26T06:25:14.110Z,5.60
2023-03-26T06:27:40.834Z,5.90
2023-03-26T06:30:07.843Z,5.50
2023-03-26T06:32:34.495Z,6.20
2023-03-26T06:35:01.131Z,6.00
2023-03-26T06:37:27.747Z,6.10
2023-03-26T06:39:54.332Z,6.10
2023-03-26T06:42:21.144Z,6.10
2023-03-26T06:45:08.236Z,6.40
2023-03-26T06:47:34.916Z,6.30
2023-03-26T06:50:01.604Z,6.30
2023-03-26T06:52:28.771Z,6.30
2023-03-26T06:54:55.615Z,6.40
2023-03-26T06:57:22.344Z,6.30
2023-03-26T06:59:49.050Z,6.90
2023-03-26T07:02:15.857Z,6.40
2023-03-26T07:04:42.562Z,7.50
2023-03-26T07:07:09.268Z,7.30
2023-03-26T07:09:36.114Z,5.90
2023-03-26T07:12:02.744Z,6.50
2023-03-26T07:14:30.554Z,6.50
2023-03-26T07:16:57.896Z,6.60
2023-03-26T07:19:24.881Z,6.80
2023-03-26T07:21:51.730Z,6.20
2023-03-26T07:24:18.660Z,7.10
2023-03-26T07:26:51.997Z,7.10
2023-03-26T07:29:26.747Z,6.70
2023-03-26T07:32:06.268Z,6.80
2023-03-26T07:34:46.454Z,7.40
2023-03-26T07:37:22.362Z,7.40
2023-03-26T07:39:57.571Z,7.50
2023-03-26T07:42:39.513Z,7.50
2023-03-26T07:45:44.871Z,7.50
2023-03-26T07:48:21.798Z,7.70
2023-03-26T07:50:51.419Z,7.90
2023-03-26T07:53:18.740Z,7.90
2023-03-26T07:55:57.502Z,7.90
2023-03-26T07:58:37.279Z,7.70
2023-03-26T08:01:11.321Z,7.80
2023-03-26T08:03:44.100Z,7.90
2023-03-26T08:06:16.860Z,7.90
2023-03-26T08:08:46.590Z,8.00
2023-03-26T08:11:39.198Z,8.00
2023-03-26T08:14:08.840Z,8.10
2023-03-26T08:16:56.022Z,8.10
2023-03-26T08:19:25.648Z,8.10
2023-03-26T08:21:57.834Z,8.10
2023-03-26T08:24:36.507Z,8.20
2023-03-26T08:27:22.829Z,8.00
2023-03-26T08:29:58.111Z,8.00
2023-03-26T08:32:25.512Z,8.00
2023-03-26T08:34:52.699Z,8.90
2023-03-26T08:37:19.412Z,7.60
2023-03-26T08:39:46.083Z,7.40
2023-03-26T08:42:19.024Z,7.50
2023-03-26T08:45:05.328Z,7.70
2023-03-26T08:47:38.057Z,7.70
2023-03-26T08:50:23.539Z,7.60
2023-03-26T08:53:08.615Z,7.70
2023-03-26T08:55:44.816Z,7.80
2023-03-26T08:58:25.282Z,7.70
2023-03-26T09:01:10.890Z,7.70
2023-03-26T09:03:52.726Z,7.60
2023-03-26T09:06:19.489Z,7.60
2023-03-26T09:08:54.469Z,7.60
2023-03-26T09:11:40.271Z,7.40
2023-03-26T09:14:25.520Z,7.60
2023-03-26T09:16:53.430Z,7.60
2023-03-26T09:19:38.890Z,7.50
2023-03-26T09:22:08.868Z,7.50
2023-03-26T09:24:41.561Z,7.60
2023-03-26T09:27:17.295Z,7.60
2023-03-26T09:29:50.035Z,7.60
2023-03-26T09:32:46.654Z,7.50
2023-03-26T09:35:32.034Z,7.50
2023-03-26T09:37:59.823Z,7.60
2023-03-26T09:40:39.728Z,7.60
2023-03-26T09:43:25.163Z,7.60
2023-03-26T09:45:54.842Z,7.60
2023-03-26T09:48:21.547Z,7.60
2023-03-26T09:50:52.748Z,7.50
2023-03-26T09:53:38.539Z,7.30
2023-03-26T09:56:18.687Z,7.60
2023-03-26T09:58:45.302Z,7.20
2023-03-26T10:01:29.261Z,7.40
2023-03-26T10:03:56.471Z,7.60
2023-03-26T10:06:23.164Z,8.20
2023-03-26T10:08:49.849Z,7.40
2023-03-26T10:11:34.450Z,8.80
2023-03-26T10:14:13.271Z,7.60
2023-03-26T10:16:46.245Z,7.70
2023-03-26T10:19:19.881Z,7.90
2023-03-26T10:22:05.476Z,7.60
2023-03-26T10:24:50.847Z,7.60
2023-03-26T10:27:20.539Z,7.70
2023-03-26T10:30:06.076Z,7.60
2023-03-26T10:32:36.225Z,7.60
2023-03-26T10:35:03.426Z,7.70
2023-03-26T10:37:30.067Z,7.80
2023-03-26T10:40:05.924Z,7.60
2023-03-26T10:42:40.774Z,7.60
2023-03-26T10:45:26.258Z,7.70
2023-03-26T10:47:58.945Z,7.80
2023-03-26T10:50:25.618Z,7.80
2023-03-26T10:52:52.204Z,7.80
2023-03-26T10:55:24.229Z,7.90
2023-03-26T10:57:53.799Z,7.90
2023-03-26T11:00:25.530Z,7.60
2023-03-26T11:02:52.384Z,7.80
2023-03-26T11:05:28.334Z,6.90
2023-03-26T11:07:57.993Z,7.80
2023-03-26T11:10:31.266Z,7.90
2023-03-26T11:12:57.886Z,7.80
2023-03-26T11:15:28.089Z,7.60
2023-03-26T11:18:07.121Z,8.30
2023-03-26T11:20:43.836Z,7.70
2023-03-26T11:23:26.032Z,7.60
2023-03-26T11:26:01.994Z,7.70
2023-03-26T11:28:37.847Z,7.80
2023-03-26T11:31:11.425Z,7.80
2023-03-26T11:33:45.577Z,9.20
2023-03-26T11:36:16.658Z,7.30
2023-03-26T11:38:47.506Z,8.10
2023-03-26T11:41:22.728Z,8.10
2023-03-26T11:44:02.806Z,8.00
2023-03-26T11:46:31.375Z,7.80
2023-03-26T11:49:00.338Z,7.80
2023-03-26T11:51:36.918Z,7.60
2023-03-26T11:54:04.813Z,7.60
2023-03-26T11:56:33.992Z,7.50
2023-03-26T11:59:21.156Z,7.50
2023-03-26T12:01:54.483Z,7.40
2023-03-26T12:04:40.447Z,7.50
2023-03-26T12:07:14.241Z,7.60
2023-03-26T12:09:55.016Z,7.80
2023-03-26T12:12:22.223Z,8.50
2023-03-26T12:14:49.311Z,7.60
2023-03-26T12:17:31.845Z,8.40
2023-03-26T12:19:58.725Z,7.80
2023-03-26T12:22:40.646Z,8.00
2023-03-26T12:25:17.280Z,8.70
2023-03-26T12:27:50.061Z,8.80
2023-03-26T12:30:25.522Z,9.40
2023-03-26T12:32:55.913Z,9.30
2023-03-26T12:35:29.142Z,9.30
2023-03-26T12:38:12.871Z,9.90
2023-03-26T12:40:42.392Z,9.90
2023-03-26T12:44:49.204Z,9.80
2023-03-26T12:47:54.847Z,9.30
2023-03-26T12:49:14.204Z,9.80
2023-03-26T12:51:41.811Z,10.70
2023-03-26T12:54:26.976Z,9.80
2023-03-26T12:57:12.302Z,9.50
2023-03-26T12:59:49.828Z,9.20
2023-03-26T13:02:33.896Z,8.80
2023-03-26T13:05:06.370Z,9.00
2023-03-26T13:07:53.714Z,10.00
2023-03-26T13:10:31.495Z,10.50
2023-03-26T13:13:10.103Z,11.80
2023-03-26T13:15:50.702Z,12.20
2023-03-26T13:18:45.120Z,12.80
2023-03-26T13:23:54.114Z,13.80
2023-03-26T13:26:26.935Z,12.90
2023-03-26T13:29:00.965Z,12.80
2023-03-26T13:31:34.108Z,11.80
2023-03-26T13:34:14.971Z,11.60
2023-03-26T13:36:46.719Z,11.10
2023-03-26T13:39:26.248Z,11.00
2023-03-26T13:42:11.249Z,11.00
2023-03-26T13:44:40.994Z,11.70
2023-03-26T13:49:40.674Z,13.90
2023-03-26T13:52:10.531Z,13.90
2023-03-26T13:54:40.430Z,13.40
2023-03-26T13:59:40.605Z,16.70
2023-03-26T14:02:15.092Z,15.60
2023-03-26T14:04:44.474Z,14.40
2023-03-26T14:09:52.011Z,12.80
2023-03-26T14:12:22.036Z,12.50
2023-03-26T14:14:49.121Z,12.20
2023-03-26T14:17:39.175Z,13.90
2023-03-26T14:20:08.868Z,14.30
2023-03-26T14:22:54.514Z,13.20
2023-03-26T14:25:39.620Z,12.50
2023-03-26T14:28:06.257Z,11.60
2023-03-26T14:30:51.237Z,11.30
2023-03-26T14:33:38.720Z,11.20
2023-03-26T14:36:14.683Z,11.00
2023-03-26T14:38:59.704Z,11.00
2023-03-26T14:41:44.744Z,10.70
2023-03-26T14:44:21.016Z,10.60
2023-03-26T14:47:06.757Z,10.40
2023-03-26T14:49:47.004Z,10.30
2023-03-26T14:52:37.231Z,10.30
2023-03-26T14:55:07.547Z,10.20
2023-03-26T14:57:40.558Z,10.40
2023-03-26T15:00:24.496Z,12.60
2023-03-26T15:03:03.719Z,15.00
2023-03-26T15:10:46.661Z,18.00
2023-03-26T15:13:16.391Z,17.20
2023-03-26T15:15:55.504Z,16.90
2023-03-26T15:18:41.243Z,16.40
2023-03-26T15:23:54.189Z,13.60
2023-03-26T15:26:37.105Z,12.90
2023-03-26T15:32:00.568Z,12.00
2023-03-26T15:37:17.210Z,11.60
2023-03-26T15:42:45.718Z,11.50
2023-03-26T15:45:31.285Z,11.50
2023-03-26T15:48:10.962Z,11.30
2023-03-26T15:50:58.332Z,11.20
2023-03-26T15:53:38.794Z,11.00
2023-03-26T15:56:08.918Z,10.90
2023-03-26T15:58:45.036Z,10.70
2023-03-26T16:01:25.414Z,10.80
2023-03-26T16:04:02.537Z,10.70
2023-03-26T16:06:31.443Z,10.70
2023-03-26T16:11:43.630Z,11.30
2023-03-26T16:14:20.955Z,11.60
2023-03-26T16:16:49.465Z,12.10
2023-03-26T16:19:19.501Z,11.70
2023-03-26T16:22:06.028Z,11.60
2023-03-26T16:24:37.847Z,11.40
2023-03-26T16:27:13.817Z,11.00
2023-03-26T16:29:59.761Z,10.80
2023-03-26T16:32:35.558Z,10.70
2023-03-26T16:35:05.211Z,10.40
2023-03-26T16:37:38.022Z,10.30
2023-03-26T16:40:26.246Z,9.60
2023-03-26T22:44:31.936Z,7.00
2023-03-26T22:50:42.571Z,6.50
2023-03-26T23:01:15.657Z,6.00
2023-03-26T23:04:03.832Z,6.30
2023-03-26T23:06:50.085Z,6.30
